Romney, WV (26757)

8:55 PM EDT on March 22, 2017 (GMT -0400)
Romney, WV | | Change Station

Elev 1424 ft 39.34 °N, 78.71 °W | Updated 21 seconds ago

Clear
Clear
33.1 °F
Feels Like 29 °F
N
4.7
Wind Variable Wind from West

Today
High -- | Low -- °F
--% Chance of Precip.
Yesterday
High -- | Low -- °F
Precip. -- in
Pressure 30.47 in
Visibility 10.0 miles
Clouds Clear
Windchill 29 °F
Dew Point 8 °F
Humidity 34%
Rainfall 0.00 in
Snow Depth Not available.
7:14 AM 7:29 PM
Waning Crescent, 28% visible
METAR KCBE 230042Z AUTO 35004KT 10SM CLR 02/M15 A3047 RMK AO1
Pressure 30.47 in
Visibility 10.0 miles
Clouds Clear
Windchill 29 °F
Dew Point 8 °F
Humidity 34%
Rainfall 0.00 in
Snow Depth Not available.
7:14 AM 7:29 PM
Waning Crescent, 28% visible
METAR KCBE 230042Z AUTO 35004KT 10SM CLR 02/M15 A3047 RMK AO1

Get Severe Weather Alerts

Thanks for signing up!

Be on the lookout for a verification email in your inbox.

You'll start receiving the daily forecast at 8 AM.

×

10-Day Weather Forecast

Almanac

Astronomy

Mar. 22, 2017 Rise Set
Actual Time
Civil Twilight
Nautical Twilight
Astronomical Twilight
Moon
Length of Visible Light
Length of Day
Tomorrow will be .
, % of the Moon is Illuminated

Today's Extremes

State Highs State Lows

Community

WunderPhotos

Upload Photos

1,962,540 photos uploaded!

WunderBlog® & News

Nearby

Air Quality

  Air Quality AQ Index Pollutant
Not available.

Snow Depth

Station Depth Elevation

Earthquake Activity

City Distance Mag. Time & Date
Minimum magnitude displayed is 2.5.

Earthquake Activity

City Distance Mag. Time & Date
Minimum magnitude displayed is 2.5.

Coastal Water Temperatures

Place Temperature

Stations

Nearby Weather Stations

Station Location Temp. Windchill Dew Point Humidity Wind Precip. Elev Updated Type
                   

Watches & Warnings

There are currently no watches in effect.